Řízení letového provozu České republiky
Letiste: LKPD Aktualizace: 24.03.2019 21:01:06  UTC
 METAR LKPD 24.03. 21:00 ...
METAR LKPD 242100Z 28003KT 9999 BKN040 BKN060 09/05 Q1019 RMK BLACK=
 TAF LKPD 24.03. 17:00 AAA
TAF AMD LKPD 241900Z 2418/2518 CNL=